Time;durP1;ratioP1;P1;durP2;ratioP2;P2;SDS_P1;SDS_P2;PMS_P1;PMS_P2;Temp;Humidity;BMP_temperature;BMP_pressure;BME280_temperature;BME280_humidity;BME280_pressure;Samples;Min_cycle;Max_cycle;Signal;HPM_P1;HPM_P2
2022/09/05 00:00:11;;;;;;;4.57;1.75;;;;;;;15.00;65.64;102238.81;2087476;28;20041;-69
2022/09/05 00:01:32;;;;;;;3.78;1.80;;;;;;;14.94;65.60;102226.34;2064982;28;20038;-69
2022/09/05 00:02:41;;;;;;;1.90;1.00;;;;;;;14.94;65.72;102234.47;2064039;28;20050;-71
2022/09/05 00:04:20;;;;;;;5.80;1.80;;;;;;;14.95;66.18;102235.28;2080615;28;20052;-71
2022/09/05 00:05:51;;;;;;;1.00;0.50;;;;;;;15.00;66.45;102230.69;2087473;28;20052;-68
2022/09/05 00:07:07;;;;;;;0.52;0.47;;;;;;;15.03;66.45;102235.56;2080026;28;20046;-68
2022/09/05 00:08:21;;;;;;;1.30;0.95;;;;;;;15.06;66.42;102234.22;2082115;28;20030;-68
2022/09/05 00:09:57;;;;;;;1.25;0.60;;;;;;;15.11;66.75;102233.44;2082004;28;20056;-69
2022/09/05 00:11:23;;;;;;;2.08;1.10;;;;;;;15.10;66.67;102232.63;2077900;28;20385;-69
2022/09/05 00:12:35;;;;;;;1.30;0.60;;;;;;;15.09;66.55;102227.47;2085459;28;20048;-68
2022/09/05 00:14:13;;;;;;;2.03;0.70;;;;;;;15.07;66.58;102235.88;2074575;28;20057;-68
2022/09/05 00:15:33;;;;;;;1.23;0.80;;;;;;;15.07;66.51;102238.56;2075753;28;20049;-68
2022/09/05 00:17:12;;;;;;;5.45;1.02;;;;;;;15.06;66.64;102226.91;2077128;28;20037;-68
2022/09/05 00:18:40;;;;;;;3.08;0.88;;;;;;;15.04;66.73;102231.78;2085624;28;20571;-69
2022/09/05 00:20:06;;;;;;;1.63;0.63;;;;;;;14.98;67.18;102230.16;2079141;28;20040;-69
2022/09/05 00:21:32;;;;;;;2.72;0.90;;;;;;;14.98;67.30;102229.34;2084011;28;20033;-69
2022/09/05 00:22:50;;;;;;;1.30;0.60;;;;;;;14.94;67.35;102222.81;2075679;28;20065;-69
2022/09/05 00:24:27;;;;;;;1.35;0.85;;;;;;;14.92;67.09;102231.22;2084891;28;20033;-71
2022/09/05 00:25:45;;;;;;;4.30;0.95;;;;;;;14.88;67.47;102230.13;2079571;28;20568;-69
2022/09/05 00:26:49;;;;;;;1.25;0.70;;;;;;;14.87;67.62;102223.06;2077141;28;20397;-69
2022/09/05 00:28:23;;;;;;;1.50;0.80;;;;;;;14.89;67.67;102223.63;2087679;28;20037;-68
2022/09/05 00:29:44;;;;;;;1.23;0.70;;;;;;;14.83;67.49;102230.09;2084940;28;20052;-69
2022/09/05 00:31:19;;;;;;;2.10;0.95;;;;;;;14.80;67.92;102230.63;2076672;28;20487;-69
2022/09/05 00:32:43;;;;;;;1.10;0.80;;;;;;;14.77;67.91;102228.47;2085323;28;20489;-69
2022/09/05 00:34:18;;;;;;;1.50;0.77;;;;;;;14.74;67.86;102227.09;2089144;28;20052;-68
2022/09/05 00:35:50;;;;;;;0.75;0.60;;;;;;;14.72;68.11;102223.00;2071703;28;20042;-70
2022/09/05 00:37:00;;;;;;;1.48;0.95;;;;;;;14.71;68.22;102226.81;2078517;28;20060;-71
2022/09/05 00:38:15;;;;;;;1.00;0.30;;;;;;;14.75;68.15;102225.19;2088536;28;20409;-69
2022/09/05 00:39:32;;;;;;;1.45;0.85;;;;;;;14.73;68.11;102235.50;2088504;28;20052;-69
2022/09/05 00:40:51;;;;;;;1.20;0.60;;;;;;;14.76;68.23;102221.41;2084079;28;20092;-69
2022/09/05 00:41:58;;;;;;;0.90;0.50;;;;;;;14.79;68.26;102229.00;2071404;28;20045;-73
2022/09/05 00:43:11;;;;;;;1.92;0.50;;;;;;;14.82;68.34;102223.06;2060172;28;20394;-69
2022/09/05 00:44:13;;;;;;;1.00;0.60;;;;;;;14.82;68.33;102220.38;2066212;28;20050;-69
2022/09/05 00:45:48;;;;;;;2.83;0.90;;;;;;;14.79;68.30;102223.59;2080477;28;20029;-69
2022/09/05 00:47:09;;;;;;;1.63;0.75;;;;;;;14.76;68.84;102222.22;2072911;28;20387;-69
2022/09/05 00:48:19;;;;;;;0.60;0.50;;;;;;;14.75;68.85;102228.75;2089840;28;20029;-69
2022/09/05 00:49:36;;;;;;;0.65;0.43;;;;;;;14.75;68.97;102223.31;2082301;28;20042;-70
2022/09/05 00:51:01;;;;;;;0.60;0.50;;;;;;;14.72;68.96;102231.13;2069834;28;20045;-69
2022/09/05 00:52:34;;;;;;;0.88;0.60;;;;;;;14.71;69.01;102221.41;2066583;28;20041;-69
2022/09/05 00:53:47;;;;;;;0.68;0.50;;;;;;;14.72;68.70;102220.31;2082560;28;20045;-69
2022/09/05 00:54:54;;;;;;;1.00;0.60;;;;;;;14.74;69.14;102220.88;2086517;28;20041;-68
2022/09/05 00:56:35;;;;;;;3.80;1.25;;;;;;;14.76;69.16;102222.22;2082563;28;20041;-69
2022/09/05 00:58:09;;;;;;;0.80;0.30;;;;;;;14.80;69.28;102219.81;2076014;28;20041;-71
2022/09/05 00:59:54;;;;;;;1.65;0.50;;;;;;;14.82;69.00;102223.06;2083369;28;20041;-70
2022/09/05 01:00:59;;;;;;;1.35;0.73;;;;;;;14.80;69.01;102219.81;2094925;28;20045;-72
2022/09/05 01:02:40;;;;;;;0.57;0.47;;;;;;;14.80;69.39;102219.81;2090156;28;20501;-69
2022/09/05 01:04:10;;;;;;;1.08;0.52;;;;;;;14.81;69.42;102216.81;2094685;28;20036;-69
2022/09/05 01:05:46;;;;;;;2.95;0.47;;;;;;;14.82;69.55;102212.25;2077939;28;20544;-69
2022/09/05 01:06:57;;;;;;;2.75;0.52;;;;;;;14.83;69.72;102217.38;2084878;28;20049;-69
2022/09/05 01:08:20;;;;;;;1.50;0.60;;;;;;;14.82;69.45;102217.66;2082632;28;20464;-69
2022/09/05 01:09:46;;;;;;;5.45;0.88;;;;;;;14.79;69.44;102220.91;2088903;28;20052;-69
2022/09/05 01:11:10;;;;;;;1.30;0.68;;;;;;;14.76;69.44;102218.72;2089523;28;20052;-69
2022/09/05 01:12:48;;;;;;;2.22;0.80;;;;;;;14.70;69.60;102214.38;2083360;28;20053;-69
2022/09/05 01:13:53;;;;;;;1.33;0.95;;;;;;;14.66;69.80;102216.78;2077914;28;20037;-72
2022/09/05 01:14:54;;;;;;;1.45;0.90;;;;;;;14.66;69.90;102215.94;2072947;28;20034;-69
2022/09/05 01:16:49;;;;;;;4.65;1.20;;;;;;;14.60;69.74;102221.38;2080506;28;20048;-69
2022/09/05 01:17:57;;;;;;;1.45;1.00;;;;;;;14.57;70.22;102216.47;2072676;28;20050;-68
2022/09/05 01:19:07;;;;;;;3.70;1.40;;;;;;;14.55;69.82;102215.91;2082390;28;20048;-72
2022/09/05 01:20:27;;;;;;;3.35;1.30;;;;;;;14.50;69.67;102218.59;2074514;28;20041;-73
2022/09/05 01:21:52;;;;;;;3.58;1.00;;;;;;;14.47;69.90;102216.41;2069543;28;20061;-72
2022/09/05 01:23:28;;;;;;;1.77;1.00;;;;;;;14.45;69.64;102220.44;2071462;28;20090;-72
2022/09/05 01:24:44;;;;;;;3.95;1.30;;;;;;;14.48;69.90;102222.63;2076804;28;20417;-70
2022/09/05 01:26:29;;;;;;;1.42;0.85;;;;;;;14.47;69.73;102227.25;2077156;28;20049;-72
2022/09/05 01:27:49;;;;;;;1.88;1.10;;;;;;;14.44;69.66;102226.94;2070111;28;20050;-70
2022/09/05 01:29:25;;;;;;;1.95;1.02;;;;;;;14.43;69.40;102222.59;2072294;28;20572;-72
2022/09/05 01:30:42;;;;;;;3.83;1.23;;;;;;;14.37;68.97;102224.47;2077502;28;20041;-72
2022/09/05 01:32:02;;;;;;;1.83;1.02;;;;;;;14.33;68.85;102226.06;2078092;28;20060;-73
2022/09/05 01:33:27;;;;;;;3.55;1.23;;;;;;;14.25;68.35;102226.56;2081042;28;20052;-70
2022/09/05 01:34:56;;;;;;;1.70;0.93;;;;;;;14.20;68.37;102223.84;2079758;28;20056;-70
2022/09/05 01:36:26;;;;;;;3.92;1.20;;;;;;;14.19;68.21;102224.94;2076397;28;20488;-70
2022/09/05 01:37:36;;;;;;;2.30;1.00;;;;;;;14.17;68.08;102229.78;2071274;28;20046;-71
2022/09/05 01:38:53;;;;;;;1.88;1.20;;;;;;;14.14;68.23;102228.41;2067354;28;20049;-70
2022/09/05 01:40:33;;;;;;;1.92;1.20;;;;;;;14.11;68.35;102234.34;2077559;28;20060;-69
2022/09/05 01:41:38;;;;;;;1.77;1.17;;;;;;;14.10;68.44;102230.81;2077662;28;20045;-69
2022/09/05 01:43:26;;;;;;;1.70;1.10;;;;;;;14.12;68.40;102230.53;2090435;28;20044;-69
2022/09/05 01:45:24;;;;;;;1.67;0.90;;;;;;;14.15;68.44;102238.13;2088703;28;20052;-70
2022/09/05 01:47:07;;;;;;;1.52;0.75;;;;;;;14.13;68.61;102233.00;2079654;28;20441;-71
2022/09/05 01:48:34;;;;;;;1.65;1.00;;;;;;;14.16;68.64;102230.88;2024001;29;20393;-71
2022/09/05 01:49:54;;;;;;;3.22;0.90;;;;;;;14.17;68.75;102233.28;2030749;29;20031;-69
2022/09/05 01:51:19;;;;;;;1.67;0.80;;;;;;;14.17;68.94;102237.88;2043389;29;20384;-68
2022/09/05 01:52:41;;;;;;;1.65;0.90;;;;;;;14.15;68.96;102235.44;2052758;28;20482;-69
2022/09/05 01:54:04;;;;;;;1.55;0.93;;;;;;;14.14;69.05;102231.91;2063730;28;20503;-69
2022/09/05 01:55:24;;;;;;;2.05;0.80;;;;;;;14.13;69.38;102227.59;2089269;28;20036;-69
2022/09/05 01:56:44;;;;;;;;;;;;;;;14.12;69.29;102236.78;2092041;28;20083;-69
2022/09/05 01:57:45;;;;;;;1.13;0.63;;;;;;;14.12;69.22;102231.38;2089413;28;20390;-69
2022/09/05 01:59:02;;;;;;;1.92;0.80;;;;;;;14.13;69.42;102233.00;2088974;28;20060;-69
2022/09/05 02:00:09;;;;;;;4.30;0.75;;;;;;;14.12;69.18;102231.38;2089138;28;20051;-69
2022/09/05 02:01:34;;;;;;;3.42;0.80;;;;;;;14.16;69.40;102236.28;2076097;28;20050;-68
2022/09/05 02:02:43;;;;;;;1.52;0.50;;;;;;;14.19;69.48;102235.75;2083863;28;20033;-68
2022/09/05 02:04:02;;;;;;;2.30;0.73;;;;;;;14.21;69.55;102233.56;2080891;28;20392;-69
2022/09/05 02:05:25;;;;;;;3.60;0.70;;;;;;;14.23;69.73;102234.13;2094191;28;20067;-70
2022/09/05 02:06:40;;;;;;;0.98;0.60;;;;;;;14.24;70.01;102235.75;2084143;28;20044;-69
2022/09/05 02:08:01;;;;;;;1.23;0.73;;;;;;;14.23;69.98;102231.44;2088787;28;20435;-69
2022/09/05 02:09:24;;;;;;;1.08;0.70;;;;;;;14.22;69.85;102230.63;2088524;28;20127;-69
2022/09/05 02:10:44;;;;;;;1.05;0.60;;;;;;;14.22;70.04;102232.50;2084220;28;20579;-69
2022/09/05 02:12:02;;;;;;;0.90;0.60;;;;;;;14.23;70.18;102226.03;2086782;28;20460;-69
2022/09/05 02:13:19;;;;;;;1.10;0.70;;;;;;;14.23;70.30;102231.44;2082884;28;20504;-69
2022/09/05 02:14:26;;;;;;;1.05;0.70;;;;;;;14.25;70.33;102231.97;2074737;28;20528;-69
2022/09/05 02:15:39;;;;;;;2.88;0.75;;;;;;;14.23;70.27;102231.44;2065096;28;20112;-69
2022/09/05 02:16:44;;;;;;;2.70;0.65;;;;;;;14.24;70.49;102227.66;2085368;28;20048;-69
2022/09/05 02:17:58;;;;;;;2.60;0.68;;;;;;;14.26;70.59;102230.91;2080960;28;20527;-68
2022/09/05 02:19:11;;;;;;;0.65;0.50;;;;;;;14.27;70.45;102225.22;2060360;28;20055;-69
2022/09/05 02:20:17;;;;;;;1.92;0.52;;;;;;;14.28;70.50;102228.75;2066367;28;20046;-69
2022/09/05 02:21:38;;;;;;;1.00;0.77;;;;;;;14.28;70.58;102228.75;2083127;28;20045;-69
2022/09/05 02:23:03;;;;;;;0.80;0.70;;;;;;;14.28;70.86;102229.59;2081497;28;20401;-69
2022/09/05 02:24:11;;;;;;;2.00;0.60;;;;;;;14.28;70.82;102229.59;2087712;28;20691;-70
2022/09/05 02:25:31;;;;;;;3.70;1.02;;;;;;;14.29;70.76;102230.38;2097297;28;20047;-69
2022/09/05 02:26:55;;;;;;;0.98;0.50;;;;;;;14.28;70.78;102234.16;2080664;28;20053;-70
2022/09/05 02:28:08;;;;;;;1.38;0.60;;;;;;;14.28;70.93;102232.28;2081184;28;20048;-70
2022/09/05 02:29:23;;;;;;;1.23;0.70;;;;;;;14.28;70.99;102226.03;2072103;28;20177;-69
2022/09/05 02:30:41;;;;;;;1.75;0.73;;;;;;;14.26;70.70;102225.50;2058769;28;20375;-70
2022/09/05 02:32:18;;;;;;;1.25;0.70;;;;;;;14.26;71.01;102237.13;2071272;28;20069;-70
2022/09/05 02:33:21;;;;;;;1.08;0.50;;;;;;;14.26;71.08;102223.59;2084279;28;20047;-69
2022/09/05 02:34:44;;;;;;;2.90;0.60;;;;;;;14.26;70.80;102226.31;2081388;28;20037;-69
2022/09/05 02:36:01;;;;;;;0.90;0.65;;;;;;;14.28;70.74;102226.03;2080395;28;20041;-70
2022/09/05 02:37:13;;;;;;;0.70;0.57;;;;;;;14.28;70.97;102234.16;2079301;28;20037;-71
2022/09/05 02:38:22;;;;;;;1.00;0.65;;;;;;;14.28;70.93;102234.16;2090729;28;20051;-71
2022/09/05 02:39:34;;;;;;;;;;;;;;;14.27;71.17;102230.63;2089227;28;20037;-72
2022/09/05 02:40:50;;;;;;;0.90;0.52;;;;;;;14.26;71.21;102234.44;2081439;28;19940;-70
2022/09/05 02:42:24;;;;;;;2.08;0.52;;;;;;;14.24;70.99;102228.44;2084269;28;20061;-69
2022/09/05 02:43:35;;;;;;;0.90;0.60;;;;;;;14.22;71.32;102227.09;2079942;28;20458;-70
2022/09/05 02:45:04;;;;;;;1.60;0.60;;;;;;;14.22;71.15;102229.78;2074093;28;20414;-71
2022/09/05 02:46:15;;;;;;;1.90;0.95;;;;;;;14.21;71.34;102236.28;2086857;28;20041;-71
2022/09/05 02:47:32;;;;;;;1.10;0.60;;;;;;;14.20;71.22;102232.78;2097222;28;20427;-71
2022/09/05 02:48:48;;;;;;;1.13;0.60;;;;;;;14.18;71.29;102234.91;2090982;28;20047;-71
2022/09/05 02:50:19;;;;;;;2.25;0.50;;;;;;;14.17;71.14;102229.78;2091668;28;20578;-70
2022/09/05 02:51:31;;;;;;;2.30;0.70;;;;;;;14.14;71.44;102234.63;2076134;28;20052;-71
2022/09/05 02:52:39;;;;;;;0.75;0.60;;;;;;;14.12;71.28;102225.97;2069460;28;20042;-70
2022/09/05 02:53:51;;;;;;;1.20;0.60;;;;;;;14.12;71.57;102228.69;2068218;28;20046;-70
2022/09/05 02:55:00;;;;;;;1.45;0.80;;;;;;;14.10;71.41;102228.13;2090666;28;20512;-71
2022/09/05 02:56:19;;;;;;;1.10;0.70;;;;;;;14.10;71.51;102230.81;2088990;28;20048;-71
2022/09/05 02:57:35;;;;;;;;;;;;;;;14.07;71.63;102227.81;2081243;28;20037;-70
2022/09/05 02:58:43;;;;;;;2.25;0.70;;;;;;;14.04;71.56;102229.16;2068352;28;19928;-71
2022/09/05 03:00:04;;;;;;;7.07;0.70;;;;;;;14.03;71.84;102232.94;2066003;28;20110;-70
2022/09/05 03:01:45;;;;;;;1.05;0.85;;;;;;;14.03;71.67;102232.09;2085598;28;20029;-71
2022/09/05 03:03:14;;;;;;;1.40;0.80;;;;;;;14.02;71.79;102236.72;2078067;28;20454;-70
2022/09/05 03:04:32;;;;;;;3.92;0.80;;;;;;;14.04;71.74;102231.06;2076396;28;20045;-71
2022/09/05 03:05:42;;;;;;;1.25;0.73;;;;;;;14.03;71.66;102226.69;2068070;28;20410;-70
2022/09/05 03:07:16;;;;;;;2.00;0.70;;;;;;;14.06;71.64;102235.13;2081805;28;20048;-71
2022/09/05 03:08:48;;;;;;;1.85;0.88;;;;;;;14.05;71.60;102238.88;2073908;28;20042;-71
2022/09/05 03:10:24;;;;;;;2.97;0.95;;;;;;;14.03;71.97;102235.66;2066989;28;20045;-71
2022/09/05 03:12:02;;;;;;;1.13;0.82;;;;;;;14.03;71.81;102237.50;2086498;28;20051;-71
2022/09/05 03:13:10;;;;;;;2.25;0.80;;;;;;;14.03;72.02;102237.50;2088985;28;20045;-71
2022/09/05 03:14:53;;;;;;;2.25;0.73;;;;;;;14.03;72.04;102237.50;2075847;28;20064;-71
2022/09/05 03:16:27;;;;;;;0.85;0.70;;;;;;;14.02;72.01;102236.72;2084459;28;20052;-70
2022/09/05 03:17:49;;;;;;;1.23;0.88;;;;;;;14.04;72.41;102237.28;2071487;28;20517;-70
2022/09/05 03:19:23;;;;;;;0.95;0.60;;;;;;;14.05;72.50;102243.50;2077742;28;20056;-70
2022/09/05 03:21:01;;;;;;;3.33;1.00;;;;;;;14.06;72.68;102243.25;2076384;28;20060;-70
2022/09/05 03:22:21;;;;;;;2.35;0.90;;;;;;;14.06;72.57;102245.94;2073172;28;20116;-70
2022/09/05 03:23:49;;;;;;;0.82;0.75;;;;;;;14.05;72.40;102247.00;2070369;28;20057;-70
2022/09/05 03:25:30;;;;;;;1.42;0.60;;;;;;;14.08;72.71;102251.09;2084409;28;20484;-69
2022/09/05 03:27:03;;;;;;;2.97;0.80;;;;;;;14.08;72.86;102249.19;2088782;28;20461;-70
2022/09/05 03:28:28;;;;;;;1.70;0.80;;;;;;;14.09;73.12;102248.13;2084891;28;20103;-70
2022/09/05 03:30:07;;;;;;;1.92;0.93;;;;;;;14.08;72.80;102251.88;2086803;28;20496;-70
2022/09/05 03:31:32;;;;;;;1.80;0.80;;;;;;;14.07;73.11;102250.28;2093205;28;20059;-70
2022/09/05 03:32:54;;;;;;;1.92;1.23;;;;;;;14.06;73.28;102251.34;2082587;28;20087;-69
2022/09/05 03:34:27;;;;;;;1.63;0.77;;;;;;;14.07;73.08;102249.47;2091470;28;20364;-69
2022/09/05 03:36:10;;;;;;;2.22;0.60;;;;;;;14.06;73.36;102254.06;2095923;28;20522;-70
2022/09/05 03:37:34;;;;;;;1.75;0.60;;;;;;;14.04;73.37;102256.19;2070991;28;20085;-69
2022/09/05 03:38:47;;;;;;;1.27;0.80;;;;;;;14.03;73.58;102249.19;2091145;28;20040;-69
2022/09/05 03:40:16;;;;;;;1.20;0.77;;;;;;;14.04;73.51;102247.28;2090536;28;20051;-70
2022/09/05 03:41:36;;;;;;;1.30;0.70;;;;;;;14.02;73.63;102249.41;2088450;28;20041;-70
2022/09/05 03:43:05;;;;;;;3.35;0.80;;;;;;;14.01;73.83;102256.72;2089985;28;20465;-69
2022/09/05 03:44:30;;;;;;;2.00;0.50;;;;;;;14.01;73.75;102255.91;2093690;28;20048;-69
2022/09/05 03:45:54;;;;;;;3.25;1.00;;;;;;;14.01;74.00;102245.91;2096580;28;20055;-70
2022/09/05 03:47:04;;;;;;;2.25;0.70;;;;;;;14.02;73.90;102250.22;2087503;28;20056;-71
2022/09/05 03:48:29;;;;;;;1.30;0.98;;;;;;;14.02;73.91;102250.22;2081407;28;20033;-71
2022/09/05 03:49:31;;;;;;;3.35;0.70;;;;;;;14.00;73.77;102249.69;2086470;28;20040;-70
2022/09/05 03:50:51;;;;;;;1.50;0.80;;;;;;;13.97;73.89;102250.22;2086530;28;20041;-70
2022/09/05 03:52:17;;;;;;;6.80;3.25;;;;;;;13.95;74.07;102244.22;2088056;28;20036;-70
2022/09/05 03:53:26;;;;;;;3.17;2.20;;;;;;;13.96;74.27;102259.38;2087021;28;20040;-71
2022/09/05 03:54:36;;;;;;;1.90;1.40;;;;;;;13.97;73.97;102244.81;2072192;28;20046;-71
2022/09/05 03:55:56;;;;;;;2.75;1.33;;;;;;;13.97;74.13;102242.09;2082437;28;20508;-71
2022/09/05 03:57:11;;;;;;;2.05;0.90;;;;;;;13.98;74.08;102251.84;2088018;28;20045;-70
2022/09/05 03:58:20;;;;;;;1.23;0.75;;;;;;;13.96;74.20;102243.16;2065741;28;20046;-70
2022/09/05 03:59:24;;;;;;;;;;;;;;;13.96;74.10;102248.56;2071051;28;20030;-70
2022/09/05 04:00:39;;;;;;;1.25;0.70;;;;;;;13.97;73.95;102244.81;2085412;28;19927;-70
2022/09/05 04:02:10;;;;;;;1.83;0.80;;;;;;;13.97;74.19;102250.22;2079034;28;20053;-71
2022/09/05 04:03:26;;;;;;;2.67;0.98;;;;;;;13.97;74.07;102258.31;2082001;28;20036;-69
2022/09/05 04:04:43;;;;;;;1.20;0.70;;;;;;;13.98;74.04;102249.13;2096943;28;20071;-69
2022/09/05 04:05:57;;;;;;;3.53;1.20;;;;;;;13.99;73.89;102250.75;2079840;28;20041;-70
2022/09/05 04:07:09;;;;;;;4.07;0.80;;;;;;;13.98;73.85;102251.03;2066819;28;20887;-70
2022/09/05 04:08:29;;;;;;;1.48;0.90;;;;;;;13.95;73.78;102252.34;2072795;28;20045;-70
2022/09/05 04:09:56;;;;;;;1.67;0.90;;;;;;;13.94;73.90;102253.44;2070748;28;20056;-71
2022/09/05 04:11:09;;;;;;;1.60;0.90;;;;;;;13.91;73.92;102260.16;2091145;28;20036;-71
2022/09/05 04:12:16;;;;;;;1.98;0.90;;;;;;;13.90;73.87;102257.72;2088115;28;20041;-71
2022/09/05 04:13:33;;;;;;;2.58;0.90;;;;;;;13.91;74.14;102262.06;2079976;28;21198;-71
2022/09/05 04:14:42;;;;;;;2.65;0.88;;;;;;;13.92;74.27;102258.28;2073068;28;20061;-72
2022/09/05 04:15:50;;;;;;;21.33;0.95;;;;;;;13.94;74.17;102258.03;2073143;28;20131;-71
2022/09/05 04:17:11;;;;;;;1.17;0.80;;;;;;;13.93;74.16;102256.38;2086498;28;20037;-71
2022/09/05 04:18:18;;;;;;;2.40;0.90;;;;;;;13.95;74.28;102262.34;2090280;28;20045;-70
2022/09/05 04:19:47;;;;;;;0.82;0.68;;;;;;;13.95;74.11;102257.75;2080651;28;20723;-69
2022/09/05 04:21:00;;;;;;;3.30;0.77;;;;;;;13.94;74.10;102258.84;2083199;28;20049;-71
2022/09/05 04:22:38;;;;;;;2.53;1.10;;;;;;;13.94;74.16;102266.16;2083034;28;20045;-70
2022/09/05 04:23:45;;;;;;;2.88;0.90;;;;;;;13.88;74.11;102268.81;2091960;28;20049;-71
2022/09/05 04:25:18;;;;;;;1.88;1.10;;;;;;;13.87;74.22;102260.94;2091075;28;20045;-70
2022/09/05 04:26:53;;;;;;;1.00;0.80;;;;;;;13.89;74.08;102264.19;2084084;28;20048;-71
2022/09/05 04:28:20;;;;;;;2.55;0.90;;;;;;;13.90;74.19;102277.47;2074356;28;20521;-72
2022/09/05 04:29:38;;;;;;;3.40;1.25;;;;;;;13.91;74.03;102275.59;2073061;28;20045;-69
2022/09/05 04:30:56;;;;;;;1.55;1.10;;;;;;;13.93;74.04;102275.31;2086241;28;20056;-70
2022/09/05 04:32:16;;;;;;;2.83;1.23;;;;;;;13.91;73.73;102270.19;2083841;28;20052;-69
2022/09/05 04:33:41;;;;;;;4.50;1.35;;;;;;;13.88;73.83;102268.00;2079277;28;20041;-70
2022/09/05 04:35:10;;;;;;;2.33;1.00;;;;;;;13.87;73.71;102260.94;2080147;28;20045;-70
2022/09/05 04:36:31;;;;;;;1.33;1.00;;;;;;;13.87;73.85;102263.63;2081572;28;20040;-71
2022/09/05 04:37:45;;;;;;;2.85;1.10;;;;;;;13.87;73.71;102269.03;2080129;28;20513;-70
2022/09/05 04:39:16;;;;;;;2.58;1.15;;;;;;;13.88;73.96;102274.22;2082824;28;20041;-69
2022/09/05 04:40:29;;;;;;;2.47;1.17;;;;;;;13.89;74.03;102275.81;2093341;28;20036;-70
2022/09/05 04:41:45;;;;;;;1.73;1.10;;;;;;;13.91;74.09;102272.88;2096867;28;20044;-69
2022/09/05 04:42:54;;;;;;;2.30;1.00;;;;;;;13.90;74.04;102276.63;2082432;28;20037;-70
2022/09/05 04:44:07;;;;;;;2.70;0.95;;;;;;;13.92;74.24;102271.78;2080109;28;20041;-69
2022/09/05 04:45:18;;;;;;;3.03;1.30;;;;;;;13.94;74.17;102276.97;2075920;28;20525;-69
2022/09/05 04:46:26;;;;;;;3.75;1.42;;;;;;;13.96;74.06;102275.59;2082718;28;20049;-69
2022/09/05 04:47:49;;;;;;;3.08;1.27;;;;;;;13.97;74.16;102271.03;2082285;28;20049;-69
2022/09/05 04:49:09;;;;;;;6.32;1.05;;;;;;;13.98;74.12;102276.16;2084178;28;20053;-67
2022/09/05 04:50:19;;;;;;;1.83;0.93;;;;;;;13.98;74.45;102273.47;2076046;28;20041;-71
2022/09/05 04:51:58;;;;;;;6.00;1.33;;;;;;;13.97;74.50;102269.16;2084310;28;20068;-72
2022/09/05 04:53:30;;;;;;;2.28;1.13;;;;;;;13.98;74.54;102283.47;2085187;28;20032;-71
2022/09/05 04:55:00;;;;;;;1.55;1.20;;;;;;;14.01;74.19;102299.19;2080734;28;20037;-72
2022/09/05 04:56:12;;;;;;;3.05;1.40;;;;;;;13.94;74.17;102304.81;2068589;28;20045;-71
2022/09/05 04:57:26;;;;;;;2.97;0.90;;;;;;;13.80;74.53;102303.59;2079147;28;20449;-72
2022/09/05 04:58:41;;;;;;;2.35;0.98;;;;;;;13.72;74.80;102310.31;2083567;28;20151;-69
2022/09/05 04:59:57;;;;;;;1.55;0.90;;;;;;;13.54;75.18;102305.25;2086768;28;20045;-73
2022/09/05 05:01:14;;;;;;;2.28;0.82;;;;;;;13.55;75.50;102291.47;2076069;28;20065;-70
2022/09/05 05:02:43;;;;;;;1.40;0.70;;;;;;;13.68;75.58;102301.91;2090011;28;20072;-71
2022/09/05 05:03:46;;;;;;;1.90;0.90;;;;;;;13.69;75.70;102302.69;2095763;28;20044;-70
2022/09/05 05:04:49;;;;;;;2.47;0.88;;;;;;;13.72;75.59;102307.59;2096743;28;20492;-70
2022/09/05 05:05:57;;;;;;;2.22;1.00;;;;;;;13.68;75.76;102307.31;2088204;28;20041;-74
2022/09/05 05:07:28;;;;;;;6.90;1.30;;;;;;;13.67;75.92;102311.06;2087639;28;20045;-73
2022/09/05 05:08:40;;;;;;;3.95;1.30;;;;;;;13.58;76.39;102311.78;2073056;28;20052;-71
2022/09/05 05:09:53;;;;;;;4.05;0.90;;;;;;;13.54;76.65;102311.47;2079235;28;20045;-72
2022/09/05 05:11:02;;;;;;;2.78;1.02;;;;;;;13.59;77.14;102316.94;2079104;28;20076;-69
2022/09/05 05:12:22;;;;;;;2.08;0.88;;;;;;;13.70;77.09;102320.53;2078781;28;20041;-69
2022/09/05 05:13:29;;;;;;;1.20;1.00;;;;;;;13.76;77.05;102316.00;2081657;28;20045;-68
2022/09/05 05:14:45;;;;;;;2.40;1.00;;;;;;;13.81;77.03;102314.16;2088489;28;20396;-69
2022/09/05 05:15:58;;;;;;;2.63;1.00;;;;;;;13.87;77.04;102321.25;2087501;28;20516;-70
2022/09/05 05:17:14;;;;;;;1.48;1.05;;;;;;;13.89;77.20;102315.56;2082034;28;20049;-69
2022/09/05 05:18:47;;;;;;;3.67;1.00;;;;;;;13.85;77.53;102323.38;2097537;28;20044;-69
2022/09/05 05:20:16;;;;;;;3.47;1.30;;;;;;;13.90;77.42;102318.03;2086088;28;20033;-69
2022/09/05 05:21:30;;;;;;;3.50;1.15;;;;;;;13.88;77.87;102319.38;2080458;28;20049;-68
2022/09/05 05:22:44;;;;;;;1.48;0.85;;;;;;;13.86;77.59;102326.91;2083022;28;20038;-69
2022/09/05 05:24:09;;;;;;;1.67;0.90;;;;;;;13.79;77.41;102321.72;2086750;28;20622;-68
2022/09/05 05:25:15;;;;;;;1.95;1.00;;;;;;;13.83;77.14;102317.41;2087849;28;20037;-69
2022/09/05 05:26:48;;;;;;;3.67;1.20;;;;;;;13.94;76.82;102320.22;2079306;28;20131;-69
2022/09/05 05:28:09;;;;;;;1.10;0.80;;;;;;;14.01;76.83;102321.63;2084720;28;20044;-69
2022/09/05 05:29:28;;;;;;;1.48;0.73;;;;;;;14.04;76.63;102318.41;2087292;28;20888;-69
2022/09/05 05:30:39;;;;;;;1.30;0.90;;;;;;;14.10;76.56;102324.69;2086929;28;20531;-69
2022/09/05 05:31:54;;;;;;;1.98;1.00;;;;;;;14.11;76.66;102316.28;2073568;28;20060;-67
2022/09/05 05:33:10;;;;;;;2.80;1.05;;;;;;;14.14;76.46;102326.59;2081501;28;20603;-68
2022/09/05 05:34:42;;;;;;;5.65;1.58;;;;;;;14.18;76.63;102326.06;2087736;28;20522;-68
2022/09/05 05:35:50;;;;;;;3.95;1.20;;;;;;;14.19;76.72;102316.91;2086861;28;20104;-69
2022/09/05 05:37:06;;;;;;;7.70;1.25;;;;;;;14.20;76.65;102319.34;2071293;28;20084;-69
2022/09/05 05:38:16;;;;;;;2.42;1.23;;;;;;;14.22;76.59;102325.31;2076030;28;20045;-68
2022/09/05 05:39:28;;;;;;;3.22;1.38;;;;;;;14.25;76.37;102315.84;2081341;28;20280;-68
2022/09/05 05:40:38;;;;;;;3.58;1.17;;;;;;;14.27;76.76;102321.81;2087802;28;20044;-68
2022/09/05 05:41:55;;;;;;;1.65;1.25;;;;;;;14.28;76.81;102324.28;2079953;28;20049;-68
2022/09/05 05:43:14;;;;;;;2.20;1.20;;;;;;;14.30;76.63;102321.28;2073003;28;20057;-70
2022/09/05 05:44:36;;;;;;;3.05;1.15;;;;;;;14.28;76.69;102321.56;2071865;28;20639;-68
2022/09/05 05:45:39;;;;;;;3.35;1.65;;;;;;;14.30;76.77;102324.00;2076931;28;20388;-70
2022/09/05 05:47:05;;;;;;;7.15;1.48;;;;;;;14.31;76.96;102320.22;2072388;28;20033;-69
2022/09/05 05:48:17;;;;;;;3.50;1.40;;;;;;;14.31;76.76;102323.75;2078420;28;20053;-68
2022/09/05 05:49:30;;;;;;;5.90;1.48;;;;;;;14.33;77.07;102323.47;2080473;28;20515;-68
2022/09/05 05:51:02;;;;;;;4.68;1.27;;;;;;;14.32;77.12;102317.25;2079418;28;20052;-69
2022/09/05 05:52:14;;;;;;;5.80;1.60;;;;;;;14.34;77.48;102320.53;2083965;28;20515;-69
2022/09/05 05:53:27;;;;;;;3.75;1.63;;;;;;;14.34;77.58;102325.09;2074741;28;20425;-69
2022/09/05 05:55:15;;;;;;;5.85;1.90;;;;;;;14.33;77.62;102323.47;2075813;28;20038;-69
2022/09/05 05:56:25;;;;;;;5.18;1.80;;;;;;;14.31;77.68;102331.03;2083019;28;20043;-69
2022/09/05 05:57:44;;;;;;;6.32;1.75;;;;;;;14.29;77.58;102327.78;2084010;28;20101;-69
2022/09/05 05:59:11;;;;;;;5.53;1.80;;;;;;;14.29;77.79;102325.09;2089808;28;20072;-69
2022/09/05 06:00:39;;;;;;;6.68;1.98;;;;;;;14.30;77.67;102326.72;2096066;28;20045;-68
2022/09/05 06:02:30;;;;;;;4.55;1.92;;;;;;;14.31;77.22;102325.63;2095463;28;20047;-69
2022/09/05 06:04:09;;;;;;;4.55;1.95;;;;;;;14.29;77.36;102325.91;2083331;28;20041;-70
2022/09/05 06:05:34;;;;;;;6.97;1.90;;;;;;;14.28;77.11;102326.13;2068863;28;20050;-69
2022/09/05 06:07:00;;;;;;;4.60;1.95;;;;;;;14.28;76.97;102326.13;2061754;28;20046;-69
2022/09/05 06:08:16;;;;;;;7.80;2.20;;;;;;;14.30;76.88;102332.13;2074737;28;20051;-69
2022/09/05 06:09:36;;;;;;;7.50;2.10;;;;;;;14.30;76.61;102332.13;2082839;28;20045;-69
2022/09/05 06:11:17;;;;;;;8.80;2.53;;;;;;;14.32;76.53;102332.69;2083539;28;20033;-69
2022/09/05 06:13:01;;;;;;;6.55;2.42;;;;;;;14.35;76.41;102329.47;2086802;28;20048;-69
2022/09/05 06:14:20;;;;;;;5.90;2.20;;;;;;;14.38;76.66;102328.94;2078906;28;20048;-68
2022/09/05 06:15:40;;;;;;;;;;;;;;;14.38;76.48;102331.66;2068746;28;20041;-69
2022/09/05 06:17:06;;;;;;;4.22;2.00;;;;;;;14.37;76.54;102330.84;2082564;28;19956;-69